Weatherford, Texas
Current Conditions -  °F | °C
As of 1:53 AM on Tuesday 21 Oct 2014 (Local Time) from KMWL Reporting Station
Clear Clear  
Wind Chill: 17°   Ceiling: Unl
Heat Index: 17°   Visibility: 7mi
Dew Point: 14°   Wind: 5mph
Humidity: 81%   Direction: 150°SSE
Pressure: 30.04"   Gusts: NA
Location:  32.76°N, 97.8°W
Report Text: KMWL 210653Z AUTO 15004KT 7SM CLR 17/14 A3004 RMK AO2 SLP161 T01720139
Loading
Personal Weather Stations






























Interactive Weather Map
Tropical Storm Tracking
New forecast layout! Learn more

10-Day Weather Forecast

Advertisements
Track Severe Weather on mobile